Time;durP1;ratioP1;P1;durP2;ratioP2;P2;SDS_P1;SDS_P2;PMS_P1;PMS_P2;Temp;Humidity;BMP_temperature;BMP_pressure;BME280_temperature;BME280_humidity;BME280_pressure;Samples;Min_cycle;Max_cycle;Signal;HPM_P1;HPM_P2
2022/07/07 00:00:40;;;;;;;0.20;0.20;;;;;;;;;;5035011;28;20055;-75
2022/07/07 00:03:06;;;;;;;0.65;0.65;;;;;;;;;;5034894;28;20172;-75
2022/07/07 00:05:31;;;;;;;0.20;0.20;;;;;;;;;;5035091;28;20128;-75
2022/07/07 00:07:57;;;;;;;0.20;0.20;;;;;;;;;;5050514;28;20369;-76
2022/07/07 00:10:22;;;;;;;0.20;0.20;;;;;;;;;;5054839;28;20021;-76
2022/07/07 00:12:49;;;;;;;0.20;0.20;;;;;;;;;;5055211;28;20025;-76
2022/07/07 00:15:14;;;;;;;0.20;0.20;;;;;;;;;;5054913;28;20111;-76
2022/07/07 00:17:40;;;;;;;0.20;0.20;;;;;;;;;;5037057;28;20076;-76
2022/07/07 00:20:06;;;;;;;0.20;0.20;;;;;;;;;;5054597;28;20075;-76
2022/07/07 00:22:31;;;;;;;0.13;0.13;;;;;;;;;;5054622;28;20055;-76
2022/07/07 00:24:56;;;;;;;0.20;0.20;;;;;;;;;;5053401;28;20087;-75
2022/07/07 00:27:22;;;;;;;0.20;0.20;;;;;;;;;;5054679;28;20041;-76
2022/07/07 00:29:48;;;;;;;0.20;0.20;;;;;;;;;;5053260;28;20068;-76
2022/07/07 00:32:13;;;;;;;0.20;0.20;;;;;;;;;;5036095;28;20041;-75
2022/07/07 00:34:39;;;;;;;0.10;0.10;;;;;;;;;;5054205;28;20090;-75
2022/07/07 00:37:04;;;;;;;0.20;0.20;;;;;;;;;;5053887;28;20056;-75
2022/07/07 00:39:30;;;;;;;0.20;0.20;;;;;;;;;;5053207;28;20067;-75
2022/07/07 00:41:55;;;;;;;0.20;0.20;;;;;;;;;;5037993;28;20029;-76
2022/07/07 00:44:22;;;;;;;0.32;0.32;;;;;;;;;;5053532;28;20033;-76
2022/07/07 00:46:50;;;;;;;0.20;0.20;;;;;;;;;;5054603;28;20045;-75
2022/07/07 00:49:16;;;;;;;0.20;0.20;;;;;;;;;;5054115;28;20186;-75
2022/07/07 00:51:42;;;;;;;0.17;0.17;;;;;;;;;;5053491;28;20025;-76
2022/07/07 00:54:08;;;;;;;0.20;0.20;;;;;;;;;;5054135;28;20468;-75
2022/07/07 00:56:34;;;;;;;0.30;0.30;;;;;;;;;;5054216;28;20040;-75
2022/07/07 00:59:02;;;;;;;0.20;0.20;;;;;;;;;;5054092;28;20033;-75
2022/07/07 01:01:27;;;;;;;4.25;1.35;;;;;;;;;;5032409;28;20036;-76
2022/07/07 01:03:53;;;;;;;0.40;0.40;;;;;;;;;;5036142;28;20040;-74
2022/07/07 01:06:18;;;;;;;0.30;0.30;;;;;;;;;;5053424;28;20025;-74
2022/07/07 01:08:44;;;;;;;0.60;0.57;;;;;;;;;;5053997;28;20370;-74
2022/07/07 01:11:09;;;;;;;0.20;0.20;;;;;;;;;;5053952;28;20036;-75
2022/07/07 01:13:35;;;;;;;1.23;1.15;;;;;;;;;;5019509;28;20043;-75
2022/07/07 01:16:00;;;;;;;0.40;0.40;;;;;;;;;;5053739;28;20037;-75
2022/07/07 01:18:26;;;;;;;0.35;0.35;;;;;;;;;;5035702;28;20029;-74
2022/07/07 01:20:51;;;;;;;0.35;0.35;;;;;;;;;;5035954;28;20072;-74
2022/07/07 01:23:17;;;;;;;1.13;1.13;;;;;;;;;;5053250;28;20048;-72
2022/07/07 01:25:42;;;;;;;0.20;0.20;;;;;;;;;;5053814;28;20036;-75
2022/07/07 01:28:08;;;;;;;0.30;0.30;;;;;;;;;;5053658;28;20045;-74
2022/07/07 01:30:33;;;;;;;0.10;0.10;;;;;;;;;;5053710;28;20043;-74
2022/07/07 01:32:59;;;;;;;0.20;0.20;;;;;;;;;;5053418;28;20043;-74
2022/07/07 01:35:24;;;;;;;0.20;0.20;;;;;;;;;;5035575;28;20037;-73
2022/07/07 01:37:50;;;;;;;0.20;0.20;;;;;;;;;;5052970;28;20025;-74
2022/07/07 01:40:15;;;;;;;0.20;0.20;;;;;;;;;;5053462;28;20033;-74
2022/07/07 01:42:41;;;;;;;0.30;0.30;;;;;;;;;;5035653;28;20044;-75
2022/07/07 01:45:06;;;;;;;2.00;1.90;;;;;;;;;;5053382;28;20048;-75
2022/07/07 01:47:33;;;;;;;0.20;0.20;;;;;;;;;;5053618;28;20033;-76
2022/07/07 01:49:58;;;;;;;0.20;0.20;;;;;;;;;;5053378;28;20499;-74
2022/07/07 01:52:24;;;;;;;0.25;0.25;;;;;;;;;;5051524;28;20041;-75
2022/07/07 01:54:50;;;;;;;0.30;0.30;;;;;;;;;;5053308;28;20431;-76
2022/07/07 01:57:16;;;;;;;0.20;0.20;;;;;;;;;;5035364;28;20037;-76
2022/07/07 01:59:41;;;;;;;0.90;0.90;;;;;;;;;;5053655;28;20083;-76
2022/07/07 02:02:07;;;;;;;0.10;0.10;;;;;;;;;;5053130;28;20037;-77
2022/07/07 02:04:32;;;;;;;0.20;0.20;;;;;;;;;;5053359;28;20051;-77
2022/07/07 02:06:58;;;;;;;0.20;0.20;;;;;;;;;;5053148;28;20053;-78
2022/07/07 02:09:23;;;;;;;0.30;0.30;;;;;;;;;;5052933;28;20037;-78
2022/07/07 02:11:49;;;;;;;0.20;0.20;;;;;;;;;;5052932;28;20029;-77
2022/07/07 02:14:15;;;;;;;0.20;0.20;;;;;;;;;;5035034;28;20045;-78
2022/07/07 02:16:40;;;;;;;0.30;0.30;;;;;;;;;;5052895;28;20035;-78
2022/07/07 02:19:07;;;;;;;0.20;0.20;;;;;;;;;;5052712;28;20041;-79
2022/07/07 02:21:32;;;;;;;0.20;0.20;;;;;;;;;;5052122;28;20028;-77
2022/07/07 02:23:58;;;;;;;0.20;0.20;;;;;;;;;;5052824;28;20037;-77
2022/07/07 02:26:25;;;;;;;0.20;0.20;;;;;;;;;;5035049;28;20076;-77
2022/07/07 02:28:50;;;;;;;0.20;0.20;;;;;;;;;;5052877;28;20044;-77
2022/07/07 02:31:17;;;;;;;0.20;0.20;;;;;;;;;;5034874;28;20033;-75
2022/07/07 02:33:43;;;;;;;0.20;0.20;;;;;;;;;;5034667;28;20041;-75
2022/07/07 02:36:09;;;;;;;0.20;0.20;;;;;;;;;;5051389;28;20016;-75
2022/07/07 02:38:36;;;;;;;0.20;0.20;;;;;;;;;;5034673;28;20090;-75
2022/07/07 02:41:02;;;;;;;0.20;0.20;;;;;;;;;;5034820;28;20029;-76
2022/07/07 02:43:27;;;;;;;0.20;0.20;;;;;;;;;;5052510;28;20040;-76
2022/07/07 02:45:53;;;;;;;0.20;0.20;;;;;;;;;;5034705;28;20029;-75
2022/07/07 02:48:19;;;;;;;0.28;0.28;;;;;;;;;;5052371;28;20025;-75
2022/07/07 02:50:45;;;;;;;0.20;0.20;;;;;;;;;;5034359;28;20041;-75
2022/07/07 02:53:11;;;;;;;0.20;0.20;;;;;;;;;;5051959;28;20052;-76
2022/07/07 02:55:37;;;;;;;0.30;0.30;;;;;;;;;;5052162;28;20052;-75
2022/07/07 02:58:03;;;;;;;0.20;0.20;;;;;;;;;;5034639;28;20036;-75
2022/07/07 03:00:29;;;;;;;0.17;0.17;;;;;;;;;;5052449;28;20037;-75
2022/07/07 03:02:55;;;;;;;0.20;0.20;;;;;;;;;;5048765;28;20419;-77
2022/07/07 03:05:23;;;;;;;0.10;0.10;;;;;;;;;;5046644;28;20048;-76
2022/07/07 03:07:49;;;;;;;0.20;0.20;;;;;;;;;;5030360;28;20160;-77
2022/07/07 03:10:15;;;;;;;0.20;0.20;;;;;;;;;;5028728;28;20125;-76
2022/07/07 03:12:41;;;;;;;0.20;0.20;;;;;;;;;;5030021;28;20040;-74
2022/07/07 03:15:07;;;;;;;0.30;0.30;;;;;;;;;;5048168;28;20117;-75
2022/07/07 03:17:32;;;;;;;0.20;0.20;;;;;;;;;;5047471;28;20064;-75
2022/07/07 03:19:58;;;;;;;0.93;0.63;;;;;;;;;;5029991;28;20116;-77
2022/07/07 03:22:23;;;;;;;0.20;0.20;;;;;;;;;;5047414;28;20117;-76
2022/07/07 03:24:49;;;;;;;0.30;0.30;;;;;;;;;;5048033;28;20040;-77
2022/07/07 03:27:14;;;;;;;0.20;0.20;;;;;;;;;;5048031;28;20036;-76
2022/07/07 03:29:40;;;;;;;0.25;0.25;;;;;;;;;;5048982;28;20041;-75
2022/07/07 03:32:06;;;;;;;0.20;0.20;;;;;;;;;;5048730;28;20036;-75
2022/07/07 03:34:31;;;;;;;0.30;0.30;;;;;;;;;;5046709;28;20116;-75
2022/07/07 03:36:57;;;;;;;0.20;0.20;;;;;;;;;;5030071;28;20037;-74
2022/07/07 03:39:22;;;;;;;0.20;0.20;;;;;;;;;;5047142;28;20087;-76
2022/07/07 03:41:48;;;;;;;0.20;0.20;;;;;;;;;;5047540;28;20083;-74
2022/07/07 03:44:13;;;;;;;0.15;0.15;;;;;;;;;;5047888;28;20112;-74
2022/07/07 03:46:39;;;;;;;0.20;0.20;;;;;;;;;;5047852;28;20041;-74
2022/07/07 03:49:04;;;;;;;0.20;0.20;;;;;;;;;;5047162;28;20025;-74
2022/07/07 03:51:30;;;;;;;0.22;0.22;;;;;;;;;;5046368;28;20049;-74
2022/07/07 03:53:55;;;;;;;0.20;0.20;;;;;;;;;;5047578;28;20041;-74
2022/07/07 03:56:21;;;;;;;0.20;0.20;;;;;;;;;;5047805;28;20036;-76
2022/07/07 03:58:47;;;;;;;0.20;0.20;;;;;;;;;;5047719;28;20033;-74
2022/07/07 04:01:12;;;;;;;0.22;0.22;;;;;;;;;;5029444;28;20083;-74
2022/07/07 04:03:38;;;;;;;0.20;0.20;;;;;;;;;;5046452;28;20076;-75
2022/07/07 04:06:04;;;;;;;0.20;0.20;;;;;;;;;;5029881;28;20045;-75
2022/07/07 04:08:29;;;;;;;0.20;0.20;;;;;;;;;;5029229;28;20045;-75
2022/07/07 04:10:55;;;;;;;0.63;0.63;;;;;;;;;;5047556;28;20036;-75
2022/07/07 04:13:20;;;;;;;0.30;0.30;;;;;;;;;;5047141;28;20040;-76
2022/07/07 04:15:46;;;;;;;0.20;0.20;;;;;;;;;;5046761;28;20036;-75
2022/07/07 04:18:11;;;;;;;0.20;0.20;;;;;;;;;;5046146;28;20037;-75
2022/07/07 04:20:37;;;;;;;0.20;0.20;;;;;;;;;;5031759;28;20033;-75
2022/07/07 04:23:02;;;;;;;2.45;1.38;;;;;;;;;;5032417;28;20098;-75
2022/07/07 04:25:28;;;;;;;0.20;0.20;;;;;;;;;;5050556;28;20144;-76
2022/07/07 04:27:53;;;;;;;0.20;0.20;;;;;;;;;;5050553;28;20048;-76
2022/07/07 04:30:19;;;;;;;0.30;0.30;;;;;;;;;;5033021;28;20041;-75
2022/07/07 04:32:44;;;;;;;1.42;1.30;;;;;;;;;;5050640;28;20116;-75
2022/07/07 04:35:10;;;;;;;0.20;0.20;;;;;;;;;;5050157;28;20029;-75
2022/07/07 04:37:36;;;;;;;1.83;0.65;;;;;;;;;;5049768;28;20039;-75
2022/07/07 04:40:03;;;;;;;0.28;0.28;;;;;;;;;;5050605;28;20056;-76
2022/07/07 04:42:28;;;;;;;0.20;0.20;;;;;;;;;;5032469;28;20472;-76
2022/07/07 04:44:54;;;;;;;0.20;0.20;;;;;;;;;;5032767;28;20035;-76
2022/07/07 04:47:19;;;;;;;0.20;0.20;;;;;;;;;;5049721;28;20045;-75
2022/07/07 04:49:45;;;;;;;0.20;0.20;;;;;;;;;;5050420;28;20040;-75
2022/07/07 04:52:10;;;;;;;0.32;0.32;;;;;;;;;;5049676;28;20037;-75
2022/07/07 04:54:36;;;;;;;0.20;0.20;;;;;;;;;;5050338;28;20032;-77
2022/07/07 04:57:02;;;;;;;0.38;0.35;;;;;;;;;;5050010;28;20041;-76
2022/07/07 04:59:27;;;;;;;0.28;0.28;;;;;;;;;;5050313;28;20124;-75
2022/07/07 05:01:53;;;;;;;0.20;0.20;;;;;;;;;;5048374;28;20037;-73
2022/07/07 05:04:18;;;;;;;0.50;0.50;;;;;;;;;;5048236;28;20048;-76
2022/07/07 05:06:44;;;;;;;0.40;0.40;;;;;;;;;;5050140;28;20087;-75
2022/07/07 05:09:09;;;;;;;0.65;0.65;;;;;;;;;;5043265;28;20036;-75
2022/07/07 05:11:35;;;;;;;0.20;0.20;;;;;;;;;;5033587;28;20363;-76
2022/07/07 05:14:01;;;;;;;0.30;0.30;;;;;;;;;;5048583;28;20472;-74
2022/07/07 05:16:27;;;;;;;0.20;0.20;;;;;;;;;;5049534;28;20041;-76
2022/07/07 05:18:52;;;;;;;0.20;0.20;;;;;;;;;;5049435;28;20476;-77
2022/07/07 05:21:18;;;;;;;0.25;0.25;;;;;;;;;;5049197;28;20127;-77
2022/07/07 05:23:43;;;;;;;0.20;0.20;;;;;;;;;;5049073;28;20455;-75
2022/07/07 05:26:09;;;;;;;0.20;0.20;;;;;;;;;;5049976;28;20047;-76
2022/07/07 05:28:36;;;;;;;0.30;0.30;;;;;;;;;;5048857;28;20029;-74
2022/07/07 05:31:02;;;;;;;0.77;0.77;;;;;;;;;;5047649;28;20037;-76
2022/07/07 05:33:28;;;;;;;3.20;1.80;;;;;;;;;;5031417;28;20438;-75
2022/07/07 05:35:54;;;;;;;16.77;4.95;;;;;;;;;;5049383;28;20048;-75
2022/07/07 05:38:19;;;;;;;0.20;0.20;;;;;;;;;;5049773;28;20100;-77
2022/07/07 05:40:45;;;;;;;0.52;0.52;;;;;;;;;;5050072;28;20032;-76
2022/07/07 05:43:10;;;;;;;0.22;0.22;;;;;;;;;;5049533;28;20496;-77
2022/07/07 05:45:36;;;;;;;0.40;0.40;;;;;;;;;;5049436;28;20060;-75
2022/07/07 05:48:01;;;;;;;0.30;0.30;;;;;;;;;;5028621;28;20030;-76
2022/07/07 05:50:27;;;;;;;0.20;0.20;;;;;;;;;;5044499;28;20507;-75
2022/07/07 05:52:52;;;;;;;0.40;0.40;;;;;;;;;;5046393;28;20032;-76
2022/07/07 05:55:18;;;;;;;0.20;0.20;;;;;;;;;;5046130;28;20086;-74
2022/07/07 05:57:43;;;;;;;0.28;0.28;;;;;;;;;;5046399;28;20503;-75
2022/07/07 06:00:09;;;;;;;0.50;0.50;;;;;;;;;;5043172;28;20510;-77
2022/07/07 06:02:37;;;;;;;0.30;0.30;;;;;;;;;;5046952;28;20949;-76
2022/07/07 06:05:03;;;;;;;0.20;0.20;;;;;;;;;;5044534;28;20112;-76
2022/07/07 06:07:28;;;;;;;0.30;0.30;;;;;;;;;;5046864;28;20029;-76
2022/07/07 06:09:54;;;;;;;0.32;0.32;;;;;;;;;;5046769;28;20124;-75
2022/07/07 06:12:21;;;;;;;0.20;0.20;;;;;;;;;;5047459;28;20447;-77
2022/07/07 06:14:47;;;;;;;0.30;0.30;;;;;;;;;;5048567;28;20132;-75
2022/07/07 06:17:12;;;;;;;0.30;0.30;;;;;;;;;;5031396;28;20127;-76
2022/07/07 06:19:38;;;;;;;0.30;0.30;;;;;;;;;;5048842;28;20403;-75
2022/07/07 06:22:04;;;;;;;0.30;0.30;;;;;;;;;;5047584;28;20033;-75
2022/07/07 06:24:29;;;;;;;0.30;0.30;;;;;;;;;;5038642;28;20042;-75
2022/07/07 06:26:55;;;;;;;0.40;0.40;;;;;;;;;;5036699;28;20028;-76
2022/07/07 06:29:20;;;;;;;0.30;0.30;;;;;;;;;;5047201;28;20148;-76
2022/07/07 06:31:46;;;;;;;0.30;0.30;;;;;;;;;;5047048;28;20028;-75
2022/07/07 06:34:11;;;;;;;0.50;0.50;;;;;;;;;;5044590;28;20131;-76
2022/07/07 06:36:37;;;;;;;0.40;0.40;;;;;;;;;;5041152;28;20044;-74
2022/07/07 06:39:02;;;;;;;0.30;0.30;;;;;;;;;;5045609;28;20028;-76
2022/07/07 06:41:35;;;;;;;0.30;0.30;;;;;;;;;;5045701;28;20041;-75
2022/07/07 06:44:01;;;;;;;0.30;0.30;;;;;;;;;;5023896;28;20443;-74
2022/07/07 06:46:26;;;;;;;0.30;0.30;;;;;;;;;;5047479;28;20738;-73
2022/07/07 06:48:52;;;;;;;0.30;0.30;;;;;;;;;;5030780;28;20037;-76
2022/07/07 06:51:17;;;;;;;0.30;0.30;;;;;;;;;;5011198;28;20063;-74
2022/07/07 06:53:43;;;;;;;0.30;0.30;;;;;;;;;;5046647;28;20040;-76
2022/07/07 06:56:08;;;;;;;0.40;0.40;;;;;;;;;;5042777;28;20185;-76
2022/07/07 06:58:34;;;;;;;0.20;0.20;;;;;;;;;;5047611;28;20033;-76
2022/07/07 07:00:59;;;;;;;0.30;0.30;;;;;;;;;;5048129;28;20037;-76
2022/07/07 07:03:25;;;;;;;0.30;0.30;;;;;;;;;;5047103;28;20124;-75
2022/07/07 07:05:50;;;;;;;0.30;0.30;;;;;;;;;;5047303;28;20111;-76
2022/07/07 07:08:16;;;;;;;0.57;0.57;;;;;;;;;;5039729;28;20053;-75
2022/07/07 07:10:41;;;;;;;0.60;0.60;;;;;;;;;;5028378;28;20037;-77
2022/07/07 07:13:07;;;;;;;0.30;0.30;;;;;;;;;;5023913;28;20502;-74
2022/07/07 07:15:32;;;;;;;0.35;0.35;;;;;;;;;;5046099;28;20051;-76
2022/07/07 07:17:58;;;;;;;0.30;0.30;;;;;;;;;;5047978;28;20085;-75
2022/07/07 07:20:23;;;;;;;0.30;0.30;;;;;;;;;;5027314;28;20036;-75
2022/07/07 07:22:49;;;;;;;0.40;0.40;;;;;;;;;;5033786;28;20106;-75
2022/07/07 07:25:16;;;;;;;0.30;0.30;;;;;;;;;;5048166;28;20048;-75
2022/07/07 07:27:42;;;;;;;0.70;0.70;;;;;;;;;;5048078;28;20891;-76
2022/07/07 07:30:07;;;;;;;0.50;0.50;;;;;;;;;;5048105;28;20052;-75
2022/07/07 07:32:33;;;;;;;1.25;1.15;;;;;;;;;;5045825;28;20039;-75
2022/07/07 07:34:58;;;;;;;0.35;0.35;;;;;;;;;;5047978;28;20037;-75
2022/07/07 07:37:24;;;;;;;2.55;0.52;;;;;;;;;;5029769;28;20075;-74
2022/07/07 07:39:49;;;;;;;0.50;0.50;;;;;;;;;;5047391;28;20055;-76
2022/07/07 07:42:15;;;;;;;0.40;0.40;;;;;;;;;;5046150;28;20385;-76
2022/07/07 07:47:24;;;;;;;0.60;0.60;;;;;;;;;;5019562;28;20040;-74
2022/07/07 07:49:50;;;;;;;0.40;0.40;;;;;;;;;;5028099;28;20029;-75
2022/07/07 07:52:15;;;;;;;0.40;0.40;;;;;;;;;;5045712;28;20037;-76
2022/07/07 07:54:41;;;;;;;0.40;0.40;;;;;;;;;;5047936;28;20057;-74
2022/07/07 07:57:06;;;;;;;1.35;1.25;;;;;;;;;;5031436;28;20128;-75
2022/07/07 07:59:32;;;;;;;0.50;0.50;;;;;;;;;;5045544;28;20021;-76
2022/07/07 08:01:58;;;;;;;0.40;0.40;;;;;;;;;;5047698;28;20038;-76
2022/07/07 08:04:23;;;;;;;1.65;1.40;;;;;;;;;;5040402;28;20036;-75
2022/07/07 08:06:49;;;;;;;0.40;0.40;;;;;;;;;;5042084;28;20033;-74
2022/07/07 08:09:14;;;;;;;0.50;0.50;;;;;;;;;;5028304;28;20029;-75
2022/07/07 08:11:40;;;;;;;0.30;0.30;;;;;;;;;;5046497;28;20028;-76
2022/07/07 08:14:05;;;;;;;0.40;0.40;;;;;;;;;;5045887;28;20059;-76
2022/07/07 08:16:31;;;;;;;0.43;0.43;;;;;;;;;;5047197;28;20036;-75
2022/07/07 08:18:56;;;;;;;0.40;0.40;;;;;;;;;;5045872;28;20029;-77
2022/07/07 08:21:22;;;;;;;0.40;0.40;;;;;;;;;;5043794;28;20071;-76
2022/07/07 08:23:47;;;;;;;0.43;0.43;;;;;;;;;;5040416;28;20079;-76
2022/07/07 08:26:13;;;;;;;0.40;0.40;;;;;;;;;;5044678;28;20033;-74
2022/07/07 08:28:39;;;;;;;0.50;0.50;;;;;;;;;;5046338;28;20059;-79
2022/07/07 08:31:06;;;;;;;0.57;0.57;;;;;;;;;;5046843;28;20484;-74
2022/07/07 08:33:32;;;;;;;0.40;0.40;;;;;;;;;;5047463;28;20028;-75
2022/07/07 08:35:57;;;;;;;0.50;0.50;;;;;;;;;;5048216;28;20075;-76
2022/07/07 08:38:23;;;;;;;0.57;0.57;;;;;;;;;;5030048;28;20057;-75
2022/07/07 08:40:48;;;;;;;0.40;0.40;;;;;;;;;;5047852;28;20033;-75
2022/07/07 08:43:15;;;;;;;0.40;0.40;;;;;;;;;;5030555;28;20040;-76
2022/07/07 08:45:41;;;;;;;0.40;0.40;;;;;;;;;;5041806;28;20037;-76
2022/07/07 08:48:07;;;;;;;0.30;0.30;;;;;;;;;;5038494;28;20045;-76
2022/07/07 08:50:37;;;;;;;0.50;0.50;;;;;;;;;;5044566;28;20044;-77
2022/07/07 08:53:03;;;;;;;0.30;0.30;;;;;;;;;;5025481;28;20392;-75
2022/07/07 08:55:30;;;;;;;0.60;0.60;;;;;;;;;;5036204;28;20036;-74
2022/07/07 08:57:55;;;;;;;7.30;1.08;;;;;;;;;;5040759;28;20511;-75
2022/07/07 09:00:22;;;;;;;0.38;0.38;;;;;;;;;;5045515;28;20029;-76
2022/07/07 09:02:49;;;;;;;0.63;0.63;;;;;;;;;;5043375;28;20036;-75
2022/07/07 09:05:14;;;;;;;0.40;0.40;;;;;;;;;;5045707;28;20055;-76
2022/07/07 09:07:50;;;;;;;0.40;0.40;;;;;;;;;;5047306;28;20029;-76
2022/07/07 09:10:29;;;;;;;0.30;0.30;;;;;;;;;;5043613;28;20052;-75
2022/07/07 09:12:55;;;;;;;0.40;0.40;;;;;;;;;;5026240;28;20056;-75
2022/07/07 09:15:21;;;;;;;0.50;0.50;;;;;;;;;;5043372;28;20534;-77
2022/07/07 09:17:46;;;;;;;0.50;0.50;;;;;;;;;;5046108;28;20041;-75
2022/07/07 09:20:12;;;;;;;0.40;0.40;;;;;;;;;;5027952;28;20044;-76
2022/07/07 09:22:49;;;;;;;0.50;0.50;;;;;;;;;;5045035;28;20090;-77
2022/07/07 09:25:16;;;;;;;2.60;2.50;;;;;;;;;;5044185;28;20048;-75
2022/07/07 09:27:49;;;;;;;0.40;0.40;;;;;;;;;;5031478;28;20037;-76
2022/07/07 09:30:24;;;;;;;0.40;0.40;;;;;;;;;;5027552;28;20037;-76
2022/07/07 09:32:50;;;;;;;3.97;1.00;;;;;;;;;;5027661;28;20604;-76
2022/07/07 09:41:08;;;;;;;0.50;0.50;;;;;;;;;;5038384;28;20762;-75
2022/07/07 09:43:35;;;;;;;0.55;0.55;;;;;;;;;;5029305;28;20044;-75
2022/07/07 09:46:09;;;;;;;0.45;0.45;;;;;;;;;;5041972;28;20026;-75
2022/07/07 09:48:36;;;;;;;0.50;0.50;;;;;;;;;;5043986;28;20036;-75
2022/07/07 09:51:10;;;;;;;0.60;0.60;;;;;;;;;;5025768;28;20512;-75
2022/07/07 09:53:51;;;;;;;2.17;0.57;;;;;;;;;;5042126;28;20048;-75
2022/07/07 09:56:16;;;;;;;0.77;0.77;;;;;;;;;;5028597;28;20034;-75
2022/07/07 09:58:42;;;;;;;3.05;1.05;;;;;;;;;;5027078;28;20043;-75
2022/07/07 10:01:07;;;;;;;0.98;0.93;;;;;;;;;;5034168;28;20033;-75
2022/07/07 10:03:33;;;;;;;0.40;0.40;;;;;;;;;;5036892;28;20092;-75
2022/07/07 10:06:00;;;;;;;0.43;0.43;;;;;;;;;;5045132;28;20981;-76
2022/07/07 10:08:28;;;;;;;0.73;0.63;;;;;;;;;;5044879;28;20101;-76
2022/07/07 10:10:54;;;;;;;4.88;0.77;;;;;;;;;;5045412;28;20044;-77
2022/07/07 10:13:20;;;;;;;7.13;1.63;;;;;;;;;;5045696;28;20043;-76
2022/07/07 10:15:45;;;;;;;0.60;0.60;;;;;;;;;;5046858;28;20111;-75
2022/07/07 10:18:11;;;;;;;0.30;0.30;;;;;;;;;;5028637;28;20475;-76
2022/07/07 10:20:37;;;;;;;0.40;0.40;;;;;;;;;;5047034;28;20488;-77
2022/07/07 10:23:02;;;;;;;2.00;0.70;;;;;;;;;;5046834;28;20072;-76
2022/07/07 10:25:28;;;;;;;7.25;1.67;;;;;;;;;;5046544;28;20037;-76
2022/07/07 10:27:53;;;;;;;2.30;1.08;;;;;;;;;;5046771;28;20035;-75
2022/07/07 10:30:36;;;;;;;1.75;1.38;;;;;;;;;;5045047;28;20450;-74
2022/07/07 10:33:03;;;;;;;4.45;0.98;;;;;;;;;;5038630;28;20025;-77
2022/07/07 10:35:39;;;;;;;1.52;0.60;;;;;;;;;;5045460;28;20033;-76
2022/07/07 10:38:09;;;;;;;4.72;3.22;;;;;;;;;;5022692;28;20037;-76
2022/07/07 10:40:35;;;;;;;0.70;0.50;;;;;;;;;;5045612;28;20028;-77
2022/07/07 10:43:19;;;;;;;1.27;0.77;;;;;;;;;;5042263;28;20098;-77
2022/07/07 10:45:46;;;;;;;9.30;2.83;;;;;;;;;;5026942;28;20029;-75
2022/07/07 10:48:30;;;;;;;12.50;2.10;;;;;;;;;;5027622;28;20385;-76
2022/07/07 10:51:15;;;;;;;2.88;1.08;;;;;;;;;;5045290;28;20760;-75
2022/07/07 10:53:53;;;;;;;1.25;0.60;;;;;;;;;;5046420;28;20037;-76
2022/07/07 10:56:19;;;;;;;2.47;1.13;;;;;;;;;;5042430;28;20083;-76
2022/07/07 10:58:58;;;;;;;2.50;1.50;;;;;;;;;;5027522;28;20055;-76
2022/07/07 11:01:31;;;;;;;0.60;0.60;;;;;;;;;;5014349;28;20026;-76
2022/07/07 11:03:57;;;;;;;1.85;0.55;;;;;;;;;;5045669;28;20667;-76
2022/07/07 11:06:23;;;;;;;9.77;6.13;;;;;;;;;;5046420;28;20040;-75
2022/07/07 11:08:56;;;;;;;2.80;2.20;;;;;;;;;;5045065;28;20069;-77
2022/07/07 11:11:21;;;;;;;0.77;0.70;;;;;;;;;;5045600;28;20073;-76
2022/07/07 11:13:47;;;;;;;2.03;1.00;;;;;;;;;;5028615;28;20547;-78
2022/07/07 11:16:18;;;;;;;1.58;1.08;;;;;;;;;;5028150;28;20044;-76
2022/07/07 11:18:48;;;;;;;4.75;1.88;;;;;;;;;;5046066;28;20059;-76
2022/07/07 11:21:14;;;;;;;2.28;1.02;;;;;;;;;;5044397;28;20484;-76
2022/07/07 11:23:55;;;;;;;0.40;0.40;;;;;;;;;;5042856;28;20045;-76
2022/07/07 11:26:23;;;;;;;0.40;0.40;;;;;;;;;;5044061;28;20060;-75
2022/07/07 11:28:49;;;;;;;2.33;1.35;;;;;;;;;;5046396;28;20436;-75
2022/07/07 11:31:15;;;;;;;1.65;1.52;;;;;;;;;;5032717;28;20033;-76
2022/07/07 11:33:41;;;;;;;3.75;1.33;;;;;;;;;;5050831;28;20103;-76
2022/07/07 11:36:11;;;;;;;2.30;0.80;;;;;;;;;;5046132;28;20128;-76
2022/07/07 11:38:36;;;;;;;1.48;1.35;;;;;;;;;;5048441;28;20531;-76
2022/07/07 11:41:02;;;;;;;6.50;4.47;;;;;;;;;;5049730;28;20064;-76
2022/07/07 11:43:27;;;;;;;0.35;0.35;;;;;;;;;;5051113;28;20040;-75
2022/07/07 11:45:53;;;;;;;2.40;0.95;;;;;;;;;;5051193;28;20818;-76
2022/07/07 11:48:21;;;;;;;0.40;0.40;;;;;;;;;;5051466;28;20025;-75
2022/07/07 11:50:48;;;;;;;2.17;1.65;;;;;;;;;;5032790;28;20106;-76
2022/07/07 11:53:13;;;;;;;2.92;1.95;;;;;;;;;;5050365;28;20067;-76
2022/07/07 11:55:39;;;;;;;3.38;1.02;;;;;;;;;;5050853;28;20044;-76
2022/07/07 11:58:05;;;;;;;1.80;1.70;;;;;;;;;;5049517;28;20043;-75
2022/07/07 12:00:32;;;;;;;0.50;0.50;;;;;;;;;;5049358;28;20439;-76
2022/07/07 12:03:00;;;;;;;3.40;2.28;;;;;;;;;;5050308;28;20052;-77
2022/07/07 12:05:30;;;;;;;2.75;2.55;;;;;;;;;;5035494;28;20040;-76
2022/07/07 12:07:57;;;;;;;1.23;1.13;;;;;;;;;;5052665;28;20033;-75
2022/07/07 12:10:23;;;;;;;6.05;2.00;;;;;;;;;;5052759;28;20174;-76
2022/07/07 12:12:55;;;;;;;0.55;0.50;;;;;;;;;;5050759;28;20029;-76
2022/07/07 12:15:21;;;;;;;1.95;1.52;;;;;;;;;;5047767;28;20025;-76
2022/07/07 12:17:46;;;;;;;7.07;1.88;;;;;;;;;;5050904;28;20052;-76
2022/07/07 12:20:16;;;;;;;2.10;0.85;;;;;;;;;;5051060;28;20353;-76
2022/07/07 12:22:43;;;;;;;0.60;0.60;;;;;;;;;;5033349;28;20507;-76
2022/07/07 12:25:10;;;;;;;0.50;0.50;;;;;;;;;;5049832;28;20503;-76
2022/07/07 12:27:50;;;;;;;1.75;1.35;;;;;;;;;;5048777;28;20040;-77
2022/07/07 12:30:16;;;;;;;0.55;0.55;;;;;;;;;;5043848;28;20029;-76
2022/07/07 12:32:43;;;;;;;0.73;0.73;;;;;;;;;;5049967;28;20043;-76
2022/07/07 12:35:09;;;;;;;1.00;1.00;;;;;;;;;;5045744;28;20040;-76
2022/07/07 12:37:42;;;;;;;2.38;1.80;;;;;;;;;;5047008;28;20037;-75
2022/07/07 12:40:10;;;;;;;5.53;5.00;;;;;;;;;;5029141;28;20384;-76
2022/07/07 12:42:36;;;;;;;0.90;0.90;;;;;;;;;;5043926;28;20061;-76
2022/07/07 12:45:08;;;;;;;0.77;0.77;;;;;;;;;;5048370;28;20111;-74
2022/07/07 12:47:33;;;;;;;2.00;0.65;;;;;;;;;;5048274;28;20369;-75
2022/07/07 12:49:59;;;;;;;0.50;0.50;;;;;;;;;;5044789;28;20052;-74
2022/07/07 12:52:25;;;;;;;3.60;1.45;;;;;;;;;;5047856;28;20040;-73
2022/07/07 12:54:55;;;;;;;0.45;0.45;;;;;;;;;;5045392;28;20675;-76
2022/07/07 12:57:25;;;;;;;3.95;1.83;;;;;;;;;;5018172;28;20517;-75
2022/07/07 12:59:50;;;;;;;0.47;0.47;;;;;;;;;;5028839;28;20036;-74
2022/07/07 13:02:16;;;;;;;4.20;1.52;;;;;;;;;;5047474;28;20036;-76
2022/07/07 13:04:42;;;;;;;0.75;0.73;;;;;;;;;;5048030;28;20033;-76
2022/07/07 13:07:09;;;;;;;4.40;1.90;;;;;;;;;;5047036;28;20092;-75
2022/07/07 13:09:34;;;;;;;2.45;1.30;;;;;;;;;;5046026;28;20029;-76
2022/07/07 13:11:59;;;;;;;6.03;2.33;;;;;;;;;;5046133;28;20048;-74
2022/07/07 13:14:25;;;;;;;6.68;1.40;;;;;;;;;;5042323;28;20101;-75
2022/07/07 13:16:51;;;;;;;4.25;1.33;;;;;;;;;;5038332;28;20037;-77
2022/07/07 13:19:16;;;;;;;1.75;0.73;;;;;;;;;;5047506;28;20035;-75
2022/07/07 13:21:42;;;;;;;4.65;1.83;;;;;;;;;;5047514;28;20107;-75
2022/07/07 13:24:08;;;;;;;6.95;1.75;;;;;;;;;;5047424;28;20049;-75
2022/07/07 13:26:34;;;;;;;0.50;0.50;;;;;;;;;;5046887;28;20039;-77
2022/07/07 13:28:59;;;;;;;0.50;0.50;;;;;;;;;;5046159;28;20728;-76
2022/07/07 13:31:25;;;;;;;0.35;0.35;;;;;;;;;;5045593;28;20040;-76
2022/07/07 13:33:50;;;;;;;2.28;0.75;;;;;;;;;;5045865;28;20033;-77
2022/07/07 13:36:16;;;;;;;3.45;1.55;;;;;;;;;;5046091;28;20489;-75
2022/07/07 13:38:42;;;;;;;0.68;0.68;;;;;;;;;;5046261;28;20072;-76
2022/07/07 13:41:07;;;;;;;1.27;0.55;;;;;;;;;;5045945;28;20032;-76
2022/07/07 13:43:32;;;;;;;3.22;1.00;;;;;;;;;;5047404;28;20049;-76
2022/07/07 13:45:58;;;;;;;2.25;1.45;;;;;;;;;;5048060;28;20039;-75
2022/07/07 13:48:24;;;;;;;2.65;0.77;;;;;;;;;;5047791;28;20037;-74
2022/07/07 13:50:52;;;;;;;1.02;0.70;;;;;;;;;;5047904;28;20037;-76
2022/07/07 13:53:17;;;;;;;7.22;2.13;;;;;;;;;;5047440;28;20507;-76
2022/07/07 13:55:43;;;;;;;6.40;2.13;;;;;;;;;;5048728;28;20044;-77
2022/07/07 13:58:09;;;;;;;3.60;1.23;;;;;;;;;;5049040;28;20049;-75
2022/07/07 14:00:34;;;;;;;4.03;1.35;;;;;;;;;;5049576;28;20510;-77
2022/07/07 14:03:00;;;;;;;1.33;1.00;;;;;;;;;;5049198;28;20554;-76
2022/07/07 14:05:25;;;;;;;4.97;1.95;;;;;;;;;;5049169;28;20115;-76
2022/07/07 14:07:51;;;;;;;2.17;1.33;;;;;;;;;;5048993;28;20032;-76
2022/07/07 14:10:18;;;;;;;0.40;0.40;;;;;;;;;;5048284;28;20070;-76
2022/07/07 14:12:44;;;;;;;5.03;1.80;;;;;;;;;;5047966;28;20590;-76
2022/07/07 14:15:09;;;;;;;8.13;1.55;;;;;;;;;;5049133;28;20072;-77
2022/07/07 14:17:36;;;;;;;0.60;0.60;;;;;;;;;;5047551;28;20060;-75
2022/07/07 14:20:03;;;;;;;1.67;0.93;;;;;;;;;;5048096;28;20036;-69
2022/07/07 14:22:28;;;;;;;0.95;0.80;;;;;;;;;;5046959;28;20029;-70
2022/07/07 14:24:54;;;;;;;1.70;1.15;;;;;;;;;;5044720;28;20507;-70
2022/07/07 14:27:19;;;;;;;1.58;1.05;;;;;;;;;;5048408;28;20507;-70
2022/07/07 14:29:45;;;;;;;1.17;0.70;;;;;;;;;;5047374;28;20025;-70
2022/07/07 14:32:11;;;;;;;0.35;0.35;;;;;;;;;;5043759;28;20444;-72
2022/07/07 14:34:36;;;;;;;1.15;0.82;;;;;;;;;;5011761;28;20389;-68
2022/07/07 14:37:02;;;;;;;3.28;1.48;;;;;;;;;;5042458;28;20034;-70
2022/07/07 14:39:27;;;;;;;5.20;1.95;;;;;;;;;;5029660;28;20370;-70
2022/07/07 14:41:53;;;;;;;3.58;1.65;;;;;;;;;;5034565;28;20474;-69
2022/07/07 14:44:21;;;;;;;4.63;1.90;;;;;;;;;;5048796;28;20083;-70
2022/07/07 14:46:47;;;;;;;0.68;0.68;;;;;;;;;;5030459;28;20033;-68